sensor_id;sensor_type;location;lat;lon;timestamp;temperature;humidity
36556;DHT22;40859;50.560;7.268;2023-04-26T07:24:02;20.70;76.40
36556;DHT22;40859;50.560;7.268;2023-04-26T07:26:28;20.70;76.50
36556;DHT22;40859;50.560;7.268;2023-04-26T07:28:54;20.70;76.60
36556;DHT22;40859;50.560;7.268;2023-04-26T07:31:20;20.70;76.80
36556;DHT22;40859;50.560;7.268;2023-04-26T07:33:46;20.70;76.80
36556;DHT22;40859;50.560;7.268;2023-04-26T07:36:12;20.70;77.20
36556;DHT22;40859;50.560;7.268;2023-04-26T07:38:38;20.70;76.90
36556;DHT22;40859;50.560;7.268;2023-04-26T07:41:04;20.70;76.90
36556;DHT22;40859;50.560;7.268;2023-04-26T07:43:30;20.70;76.90
36556;DHT22;40859;50.560;7.268;2023-04-26T07:46:02;20.70;76.90
36556;DHT22;40859;50.560;7.268;2023-04-26T07:48:29;20.70;77.00
36556;DHT22;40859;50.560;7.268;2023-04-26T07:50:55;20.70;77.00
36556;DHT22;40859;50.560;7.268;2023-04-26T07:53:22;20.70;77.00
36556;DHT22;40859;50.560;7.268;2023-04-26T07:55:49;20.70;77.00
36556;DHT22;40859;50.560;7.268;2023-04-26T07:58:16;20.70;77.00
36556;DHT22;40859;50.560;7.268;2023-04-26T08:00:42;20.70;77.20
36556;DHT22;40859;50.560;7.268;2023-04-26T08:03:08;20.70;77.00
36556;DHT22;40859;50.560;7.268;2023-04-26T08:05:34;20.70;77.10
36556;DHT22;40859;50.560;7.268;2023-04-26T08:08:00;20.80;77.20
36556;DHT22;40859;50.560;7.268;2023-04-26T08:10:26;20.70;77.10
36556;DHT22;40859;50.560;7.268;2023-04-26T08:12:52;20.70;77.20
36556;DHT22;40859;50.560;7.268;2023-04-26T08:15:18;20.70;77.10
36556;DHT22;40859;50.560;7.268;2023-04-26T08:17:44;20.80;77.40
36556;DHT22;40859;50.560;7.268;2023-04-26T08:20:11;20.80;77.20
36556;DHT22;40859;50.560;7.268;2023-04-26T08:22:37;20.80;77.30
36556;DHT22;40859;50.560;7.268;2023-04-26T08:25:04;20.80;77.40
36556;DHT22;40859;50.560;7.268;2023-04-26T08:27:30;20.80;77.30
36556;DHT22;40859;50.560;7.268;2023-04-26T08:29:56;20.80;77.30
36556;DHT22;40859;50.560;7.268;2023-04-26T08:32:22;20.80;77.30
36556;DHT22;40859;50.560;7.268;2023-04-26T08:34:48;20.80;77.30
36556;DHT22;40859;50.560;7.268;2023-04-26T08:37:14;20.80;77.50
36556;DHT22;40859;50.560;7.268;2023-04-26T08:39:40;20.80;77.40
36556;DHT22;40859;50.560;7.268;2023-04-26T08:42:14;20.80;77.30
36556;DHT22;40859;50.560;7.268;2023-04-26T08:44:41;20.80;77.40
36556;DHT22;40859;50.560;7.268;2023-04-26T08:47:21;20.80;77.30
36556;DHT22;40859;50.560;7.268;2023-04-26T08:49:53;20.80;77.30
36556;DHT22;40859;50.560;7.268;2023-04-26T08:52:27;20.80;77.50
36556;DHT22;40859;50.560;7.268;2023-04-26T08:54:54;20.80;77.50
36556;DHT22;40859;50.560;7.268;2023-04-26T08:57:21;20.80;77.50
36556;DHT22;40859;50.560;7.268;2023-04-26T08:59:48;20.80;77.50
36556;DHT22;40859;50.560;7.268;2023-04-26T09:02:18;20.80;77.60
36556;DHT22;40859;50.560;7.268;2023-04-26T09:04:48;20.80;77.60
36556;DHT22;40859;50.560;7.268;2023-04-26T09:07:30;20.80;77.70
36556;DHT22;40859;50.560;7.268;2023-04-26T09:09:58;20.80;77.70
36556;DHT22;40859;50.560;7.268;2023-04-26T09:12:24;20.80;77.80
36556;DHT22;40859;50.560;7.268;2023-04-26T09:14:50;20.80;77.80
36556;DHT22;40859;50.560;7.268;2023-04-26T09:17:34;20.90;77.90
36556;DHT22;40859;50.560;7.268;2023-04-26T09:22:48;20.90;77.90
36556;DHT22;40859;50.560;7.268;2023-04-26T09:25:25;20.90;77.80
36556;DHT22;40859;50.560;7.268;2023-04-26T09:27:52;20.80;77.70
36556;DHT22;40859;50.560;7.268;2023-04-26T09:30:21;20.80;77.80
36556;DHT22;40859;50.560;7.268;2023-04-26T09:32:55;20.80;77.80
36556;DHT22;40859;50.560;7.268;2023-04-26T09:35:41;20.80;77.80
36556;DHT22;40859;50.560;7.268;2023-04-26T09:38:09;20.90;77.90
36556;DHT22;40859;50.560;7.268;2023-04-26T09:40:42;20.90;77.90
36556;DHT22;40859;50.560;7.268;2023-04-26T09:43:16;20.90;77.90
36556;DHT22;40859;50.560;7.268;2023-04-26T09:45:59;20.90;77.90
36556;DHT22;40859;50.560;7.268;2023-04-26T09:48:31;20.90;77.90
36556;DHT22;40859;50.560;7.268;2023-04-26T09:51:11;20.90;77.90
36556;DHT22;40859;50.560;7.268;2023-04-26T09:53:44;20.90;77.90
36556;DHT22;40859;50.560;7.268;2023-04-26T09:56:19;20.90;77.90
36556;DHT22;40859;50.560;7.268;2023-04-26T09:58:57;20.90;77.90
36556;DHT22;40859;50.560;7.268;2023-04-26T10:01:24;20.90;77.90
36556;DHT22;40859;50.560;7.268;2023-04-26T10:03:51;20.90;77.90
36556;DHT22;40859;50.560;7.268;2023-04-26T10:06:20;20.90;77.90
36556;DHT22;40859;50.560;7.268;2023-04-26T10:08:45;20.90;77.80
36556;DHT22;40859;50.560;7.268;2023-04-26T10:11:11;20.90;77.70
36556;DHT22;40859;50.560;7.268;2023-04-26T10:13:39;20.90;77.90
36556;DHT22;40859;50.560;7.268;2023-04-26T10:16:06;20.90;77.80
36556;DHT22;40859;50.560;7.268;2023-04-26T10:18:34;20.90;77.70
36556;DHT22;40859;50.560;7.268;2023-04-26T10:21:11;20.90;77.70
36556;DHT22;40859;50.560;7.268;2023-04-26T10:23:40;20.90;77.70
36556;DHT22;40859;50.560;7.268;2023-04-26T10:26:06;20.90;77.70
36556;DHT22;40859;50.560;7.268;2023-04-26T10:30:23;21.00;77.70
36556;DHT22;40859;50.560;7.268;2023-04-26T10:33:31;20.90;77.70
36556;DHT22;40859;50.560;7.268;2023-04-26T10:36:11;20.90;78.60
36556;DHT22;40859;50.560;7.268;2023-04-26T10:39:00;21.00;77.80
36556;DHT22;40859;50.560;7.268;2023-04-26T10:41:42;21.00;77.80
36556;DHT22;40859;50.560;7.268;2023-04-26T10:44:39;20.90;77.90
36556;DHT22;40859;50.560;7.268;2023-04-26T10:47:06;20.90;77.80
36556;DHT22;40859;50.560;7.268;2023-04-26T10:49:44;20.90;77.90
36556;DHT22;40859;50.560;7.268;2023-04-26T10:52:13;20.90;77.90
36556;DHT22;40859;50.560;7.268;2023-04-26T10:54:59;20.90;77.90
36556;DHT22;40859;50.560;7.268;2023-04-26T10:57:45;20.90;78.00
36556;DHT22;40859;50.560;7.268;2023-04-26T11:00:19;20.90;78.00
36556;DHT22;40859;50.560;7.268;2023-04-26T11:02:58;21.00;78.10
36556;DHT22;40859;50.560;7.268;2023-04-26T11:05:51;20.90;78.20
36556;DHT22;40859;50.560;7.268;2023-04-26T11:08:20;21.00;78.30
36556;DHT22;40859;50.560;7.268;2023-04-26T11:12:41;21.00;78.20
36556;DHT22;40859;50.560;7.268;2023-04-26T11:15:07;21.00;78.30
36556;DHT22;40859;50.560;7.268;2023-04-26T11:17:36;21.00;79.10
36556;DHT22;40859;50.560;7.268;2023-04-26T11:20:08;21.00;78.30
36556;DHT22;40859;50.560;7.268;2023-04-26T11:22:38;21.00;78.30
36556;DHT22;40859;50.560;7.268;2023-04-26T11:25:06;21.00;78.30
36556;DHT22;40859;50.560;7.268;2023-04-26T11:27:32;21.00;78.40
36556;DHT22;40859;50.560;7.268;2023-04-26T11:30:02;21.00;78.30
36556;DHT22;40859;50.560;7.268;2023-04-26T11:32:29;21.00;78.30
36556;DHT22;40859;50.560;7.268;2023-04-26T11:34:59;21.00;78.40
36556;DHT22;40859;50.560;7.268;2023-04-26T11:37:25;21.00;78.30
36556;DHT22;40859;50.560;7.268;2023-04-26T11:39:51;21.00;78.40
36556;DHT22;40859;50.560;7.268;2023-04-26T11:42:24;21.00;78.40
36556;DHT22;40859;50.560;7.268;2023-04-26T11:44:50;21.00;78.40
36556;DHT22;40859;50.560;7.268;2023-04-26T11:47:17;21.00;78.30
36556;DHT22;40859;50.560;7.268;2023-04-26T11:49:45;21.00;78.20
36556;DHT22;40859;50.560;7.268;2023-04-26T11:52:12;21.00;78.10
36556;DHT22;40859;50.560;7.268;2023-04-26T11:54:38;21.00;78.00
36556;DHT22;40859;50.560;7.268;2023-04-26T11:57:15;21.00;78.90
36556;DHT22;40859;50.560;7.268;2023-04-26T11:59:41;21.00;77.90
36556;DHT22;40859;50.560;7.268;2023-04-26T12:02:11;21.00;77.90
36556;DHT22;40859;50.560;7.268;2023-04-26T12:04:37;21.10;77.90
36556;DHT22;40859;50.560;7.268;2023-04-26T12:07:06;21.00;77.90
36556;DHT22;40859;50.560;7.268;2023-04-26T12:09:33;21.10;78.00
36556;DHT22;40859;50.560;7.268;2023-04-26T12:12:03;21.10;78.00
36556;DHT22;40859;50.560;7.268;2023-04-26T12:14:37;21.10;78.10
36556;DHT22;40859;50.560;7.268;2023-04-26T12:17:05;21.10;78.10
36556;DHT22;40859;50.560;7.268;2023-04-26T12:19:35;21.10;78.10
36556;DHT22;40859;50.560;7.268;2023-04-26T12:22:02;21.10;78.20
36556;DHT22;40859;50.560;7.268;2023-04-26T12:24:29;21.10;78.10
36556;DHT22;40859;50.560;7.268;2023-04-26T12:26:59;21.10;78.20
36556;DHT22;40859;50.560;7.268;2023-04-26T12:29:25;21.10;78.20
36556;DHT22;40859;50.560;7.268;2023-04-26T12:31:53;21.10;78.20
36556;DHT22;40859;50.560;7.268;2023-04-26T12:34:19;21.10;78.20
36556;DHT22;40859;50.560;7.268;2023-04-26T12:36:45;21.10;78.30
36556;DHT22;40859;50.560;7.268;2023-04-26T12:39:11;21.10;78.10
36556;DHT22;40859;50.560;7.268;2023-04-26T12:41:39;21.10;78.10
36556;DHT22;40859;50.560;7.268;2023-04-26T12:44:07;21.10;78.10
36556;DHT22;40859;50.560;7.268;2023-04-26T12:46:34;21.10;78.10
36556;DHT22;40859;50.560;7.268;2023-04-26T12:49:00;21.10;78.10
36556;DHT22;40859;50.560;7.268;2023-04-26T12:51:26;21.10;78.10
36556;DHT22;40859;50.560;7.268;2023-04-26T12:53:52;21.10;78.20
36556;DHT22;40859;50.560;7.268;2023-04-26T12:56:18;21.10;78.20
36556;DHT22;40859;50.560;7.268;2023-04-26T12:58:43;21.10;78.20
36556;DHT22;40859;50.560;7.268;2023-04-26T13:01:10;21.10;78.30
36556;DHT22;40859;50.560;7.268;2023-04-26T13:03:37;21.20;78.40
36556;DHT22;40859;50.560;7.268;2023-04-26T13:06:03;21.10;78.30
36556;DHT22;40859;50.560;7.268;2023-04-26T13:08:29;21.20;78.40
36556;DHT22;40859;50.560;7.268;2023-04-26T13:10:58;21.20;78.40
36556;DHT22;40859;50.560;7.268;2023-04-26T13:13:24;21.10;78.30
36556;DHT22;40859;50.560;7.268;2023-04-26T13:15:50;21.10;78.00
36556;DHT22;40859;50.560;7.268;2023-04-26T13:18:20;21.20;77.80
36556;DHT22;40859;50.560;7.268;2023-04-26T13:20:45;21.10;77.50
36556;DHT22;40859;50.560;7.268;2023-04-26T13:23:15;21.20;77.60
36556;DHT22;40859;50.560;7.268;2023-04-26T13:25:44;21.20;77.50
36556;DHT22;40859;50.560;7.268;2023-04-26T13:28:10;21.20;77.50
36556;DHT22;40859;50.560;7.268;2023-04-26T13:30:36;21.20;77.40
36556;DHT22;40859;50.560;7.268;2023-04-26T13:33:01;21.10;77.40
36556;DHT22;40859;50.560;7.268;2023-04-26T13:35:27;21.20;77.40
36556;DHT22;40859;50.560;7.268;2023-04-26T13:37:53;21.20;77.40
36556;DHT22;40859;50.560;7.268;2023-04-26T13:40:21;21.20;77.30
36556;DHT22;40859;50.560;7.268;2023-04-26T13:42:47;21.20;78.10
36556;DHT22;40859;50.560;7.268;2023-04-26T13:45:13;21.20;77.20
36556;DHT22;40859;50.560;7.268;2023-04-26T13:47:39;21.20;77.20
36556;DHT22;40859;50.560;7.268;2023-04-26T13:50:06;21.20;77.20
36556;DHT22;40859;50.560;7.268;2023-04-26T13:52:35;21.20;77.30
36556;DHT22;40859;50.560;7.268;2023-04-26T13:55:01;21.20;77.40
36556;DHT22;40859;50.560;7.268;2023-04-26T13:57:30;21.20;77.40
36556;DHT22;40859;50.560;7.268;2023-04-26T13:59:56;21.20;77.50
36556;DHT22;40859;50.560;7.268;2023-04-26T14:02:22;21.20;77.60
36556;DHT22;40859;50.560;7.268;2023-04-26T14:04:49;21.20;77.80
36556;DHT22;40859;50.560;7.268;2023-04-26T14:07:14;21.20;77.70
36556;DHT22;40859;50.560;7.268;2023-04-26T14:09:41;21.20;77.80
36556;DHT22;40859;50.560;7.268;2023-04-26T14:12:07;21.20;77.80
36556;DHT22;40859;50.560;7.268;2023-04-26T14:14:35;21.30;78.30
36556;DHT22;40859;50.560;7.268;2023-04-26T14:17:01;21.30;77.90
36556;DHT22;40859;50.560;7.268;2023-04-26T14:19:27;21.30;78.00
36556;DHT22;40859;50.560;7.268;2023-04-26T14:21:53;21.30;77.90
36556;DHT22;40859;50.560;7.268;2023-04-26T14:24:19;21.30;77.90
36556;DHT22;40859;50.560;7.268;2023-04-26T14:26:45;21.30;78.00
36556;DHT22;40859;50.560;7.268;2023-04-26T14:29:11;21.30;78.00
36556;DHT22;40859;50.560;7.268;2023-04-26T14:31:37;21.30;78.10
36556;DHT22;40859;50.560;7.268;2023-04-26T14:34:02;21.40;79.00
36556;DHT22;40859;50.560;7.268;2023-04-26T14:36:28;21.40;78.20
36556;DHT22;40859;50.560;7.268;2023-04-26T14:38:54;21.40;78.20
36556;DHT22;40859;50.560;7.268;2023-04-26T14:41:20;21.40;78.30
36556;DHT22;40859;50.560;7.268;2023-04-26T14:43:46;21.40;78.30
36556;DHT22;40859;50.560;7.268;2023-04-26T14:46:12;21.40;78.30
36556;DHT22;40859;50.560;7.268;2023-04-26T14:48:38;21.40;78.20
36556;DHT22;40859;50.560;7.268;2023-04-26T14:51:04;21.40;78.10
36556;DHT22;40859;50.560;7.268;2023-04-26T14:53:34;21.40;78.10
36556;DHT22;40859;50.560;7.268;2023-04-26T14:56:10;21.40;78.10
36556;DHT22;40859;50.560;7.268;2023-04-26T14:58:36;21.40;78.80
36556;DHT22;40859;50.560;7.268;2023-04-26T15:01:02;21.40;78.00
36556;DHT22;40859;50.560;7.268;2023-04-26T15:03:28;21.50;78.10
36556;DHT22;40859;50.560;7.268;2023-04-26T15:05:54;21.50;78.30
36556;DHT22;40859;50.560;7.268;2023-04-26T15:08:20;21.50;78.90
36556;DHT22;40859;50.560;7.268;2023-04-26T15:10:49;21.50;78.10
36556;DHT22;40859;50.560;7.268;2023-04-26T15:13:16;21.50;78.10
36556;DHT22;40859;50.560;7.268;2023-04-26T15:15:41;21.50;78.00
36556;DHT22;40859;50.560;7.268;2023-04-26T15:18:07;21.50;77.90
36556;DHT22;40859;50.560;7.268;2023-04-26T15:20:36;21.50;77.90
36556;DHT22;40859;50.560;7.268;2023-04-26T15:23:03;21.50;77.90
36556;DHT22;40859;50.560;7.268;2023-04-26T15:25:28;21.40;77.90
36556;DHT22;40859;50.560;7.268;2023-04-26T15:27:54;21.50;78.00
36556;DHT22;40859;50.560;7.268;2023-04-26T15:30:25;21.50;78.00
36556;DHT22;40859;50.560;7.268;2023-04-26T15:32:59;21.50;78.10
36556;DHT22;40859;50.560;7.268;2023-04-26T15:35:25;21.50;78.20
36556;DHT22;40859;50.560;7.268;2023-04-26T15:37:51;21.50;78.20
36556;DHT22;40859;50.560;7.268;2023-04-26T15:40:19;21.50;78.30
36556;DHT22;40859;50.560;7.268;2023-04-26T15:42:45;21.50;78.60
36556;DHT22;40859;50.560;7.268;2023-04-26T15:45:13;21.50;78.70
36556;DHT22;40859;50.560;7.268;2023-04-26T15:47:39;21.50;79.70
36556;DHT22;40859;50.560;7.268;2023-04-26T15:50:05;21.50;78.80
36556;DHT22;40859;50.560;7.268;2023-04-26T15:52:36;21.50;79.00
36556;DHT22;40859;50.560;7.268;2023-04-26T15:55:03;21.50;79.00
36556;DHT22;40859;50.560;7.268;2023-04-26T15:57:30;21.50;79.00
36556;DHT22;40859;50.560;7.268;2023-04-26T16:00:05;21.60;79.20
36556;DHT22;40859;50.560;7.268;2023-04-26T16:02:33;21.60;79.40
36556;DHT22;40859;50.560;7.268;2023-04-26T16:04:59;21.60;79.60
36556;DHT22;40859;50.560;7.268;2023-04-26T16:07:25;21.60;79.80
36556;DHT22;40859;50.560;7.268;2023-04-26T16:09:53;21.60;80.10
36556;DHT22;40859;50.560;7.268;2023-04-26T16:12:19;21.60;80.30
36556;DHT22;40859;50.560;7.268;2023-04-26T16:14:45;21.60;80.30
36556;DHT22;40859;50.560;7.268;2023-04-26T16:17:13;21.60;80.30
36556;DHT22;40859;50.560;7.268;2023-04-26T16:19:42;21.60;80.40
36556;DHT22;40859;50.560;7.268;2023-04-26T16:22:09;21.60;80.50
36556;DHT22;40859;50.560;7.268;2023-04-26T16:24:35;21.70;80.60
36556;DHT22;40859;50.560;7.268;2023-04-26T16:27:03;21.70;80.80
36556;DHT22;40859;50.560;7.268;2023-04-26T16:29:29;21.60;80.90
36556;DHT22;40859;50.560;7.268;2023-04-26T16:31:55;21.70;81.00
36556;DHT22;40859;50.560;7.268;2023-04-26T16:34:21;21.70;81.00
36556;DHT22;40859;50.560;7.268;2023-04-26T16:36:47;21.70;81.00
36556;DHT22;40859;50.560;7.268;2023-04-26T16:39:12;21.70;81.10
36556;DHT22;40859;50.560;7.268;2023-04-26T16:41:40;21.70;81.00
36556;DHT22;40859;50.560;7.268;2023-04-26T16:44:09;21.60;81.00
36556;DHT22;40859;50.560;7.268;2023-04-26T16:46:36;21.70;81.20
36556;DHT22;40859;50.560;7.268;2023-04-26T16:49:02;21.70;81.10
36556;DHT22;40859;50.560;7.268;2023-04-26T16:51:34;21.70;81.30
36556;DHT22;40859;50.560;7.268;2023-04-26T16:54:01;21.70;81.30
36556;DHT22;40859;50.560;7.268;2023-04-26T16:56:28;21.70;81.30
36556;DHT22;40859;50.560;7.268;2023-04-26T16:58:57;21.70;81.40
36556;DHT22;40859;50.560;7.268;2023-04-26T17:01:25;21.70;81.50
36556;DHT22;40859;50.560;7.268;2023-04-26T17:03:54;21.70;81.20
36556;DHT22;40859;50.560;7.268;2023-04-26T17:06:22;21.70;80.80
36556;DHT22;40859;50.560;7.268;2023-04-26T17:08:49;21.70;80.10
36556;DHT22;40859;50.560;7.268;2023-04-26T17:11:21;21.70;79.70
36556;DHT22;40859;50.560;7.268;2023-04-26T17:13:47;21.70;79.30
36556;DHT22;40859;50.560;7.268;2023-04-26T17:16:12;21.70;79.10
36556;DHT22;40859;50.560;7.268;2023-04-26T17:18:39;21.70;79.10
36556;DHT22;40859;50.560;7.268;2023-04-26T17:21:06;21.70;79.00
36556;DHT22;40859;50.560;7.268;2023-04-26T17:23:32;21.70;79.00
36556;DHT22;40859;50.560;7.268;2023-04-26T17:25:59;21.70;79.00
36556;DHT22;40859;50.560;7.268;2023-04-26T17:28:25;21.70;79.00
36556;DHT22;40859;50.560;7.268;2023-04-26T17:30:51;21.70;79.10
36556;DHT22;40859;50.560;7.268;2023-04-26T17:33:17;21.70;79.10
36556;DHT22;40859;50.560;7.268;2023-04-26T17:35:42;21.70;78.90
36556;DHT22;40859;50.560;7.268;2023-04-26T17:38:08;21.70;78.80
36556;DHT22;40859;50.560;7.268;2023-04-26T17:40:34;21.70;78.80
36556;DHT22;40859;50.560;7.268;2023-04-26T17:43:00;21.60;78.80
36556;DHT22;40859;50.560;7.268;2023-04-26T17:45:26;21.60;78.70
36556;DHT22;40859;50.560;7.268;2023-04-26T17:47:53;21.70;78.90
36556;DHT22;40859;50.560;7.268;2023-04-26T17:50:19;21.70;78.80
36556;DHT22;40859;50.560;7.268;2023-04-26T17:52:45;21.70;78.80
36556;DHT22;40859;50.560;7.268;2023-04-26T17:55:15;21.60;78.70
36556;DHT22;40859;50.560;7.268;2023-04-26T17:57:41;21.60;78.70
36556;DHT22;40859;50.560;7.268;2023-04-26T18:00:08;21.60;78.70
36556;DHT22;40859;50.560;7.268;2023-04-26T18:02:37;21.60;79.50
36556;DHT22;40859;50.560;7.268;2023-04-26T18:05:12;21.60;78.90
36556;DHT22;40859;50.560;7.268;2023-04-26T18:07:38;21.60;78.70
36556;DHT22;40859;50.560;7.268;2023-04-26T18:10:05;21.60;78.70
36556;DHT22;40859;50.560;7.268;2023-04-26T18:12:35;21.60;78.70
36556;DHT22;40859;50.560;7.268;2023-04-26T18:15:02;21.60;78.70
36556;DHT22;40859;50.560;7.268;2023-04-26T18:17:28;21.60;78.80
36556;DHT22;40859;50.560;7.268;2023-04-26T18:19:54;21.60;78.70
36556;DHT22;40859;50.560;7.268;2023-04-26T18:22:20;21.60;79.00
36556;DHT22;40859;50.560;7.268;2023-04-26T18:24:49;21.60;78.60
36556;DHT22;40859;50.560;7.268;2023-04-26T18:27:15;21.60;78.50
36556;DHT22;40859;50.560;7.268;2023-04-26T18:29:44;21.60;78.40
36556;DHT22;40859;50.560;7.268;2023-04-26T18:32:10;21.60;78.40
36556;DHT22;40859;50.560;7.268;2023-04-26T18:34:37;21.60;78.30
36556;DHT22;40859;50.560;7.268;2023-04-26T18:37:06;21.60;78.30
36556;DHT22;40859;50.560;7.268;2023-04-26T18:39:35;21.60;78.30
36556;DHT22;40859;50.560;7.268;2023-04-26T18:42:01;21.60;78.30
36556;DHT22;40859;50.560;7.268;2023-04-26T18:44:27;21.60;78.20
36556;DHT22;40859;50.560;7.268;2023-04-26T18:46:53;21.60;78.20
36556;DHT22;40859;50.560;7.268;2023-04-26T18:49:20;21.60;78.20
36556;DHT22;40859;50.560;7.268;2023-04-26T18:51:47;21.60;78.20
36556;DHT22;40859;50.560;7.268;2023-04-26T18:54:13;21.60;78.10
36556;DHT22;40859;50.560;7.268;2023-04-26T18:56:39;21.60;78.10
36556;DHT22;40859;50.560;7.268;2023-04-26T18:59:06;21.50;78.10
36556;DHT22;40859;50.560;7.268;2023-04-26T19:01:32;21.60;78.20
36556;DHT22;40859;50.560;7.268;2023-04-26T19:03:58;21.50;78.00
36556;DHT22;40859;50.560;7.268;2023-04-26T19:06:24;21.50;78.00
36556;DHT22;40859;50.560;7.268;2023-04-26T19:08:50;21.50;78.00
36556;DHT22;40859;50.560;7.268;2023-04-26T19:11:16;21.50;78.00
36556;DHT22;40859;50.560;7.268;2023-04-26T19:13:42;21.50;78.00
36556;DHT22;40859;50.560;7.268;2023-04-26T19:16:09;21.50;78.00
36556;DHT22;40859;50.560;7.268;2023-04-26T19:18:35;21.50;78.00
36556;DHT22;40859;50.560;7.268;2023-04-26T19:21:03;21.50;78.00
36556;DHT22;40859;50.560;7.268;2023-04-26T19:23:29;21.50;77.90
36556;DHT22;40859;50.560;7.268;2023-04-26T19:26:10;21.50;77.90
36556;DHT22;40859;50.560;7.268;2023-04-26T19:28:39;21.50;77.80
36556;DHT22;40859;50.560;7.268;2023-04-26T19:31:08;21.50;77.50
36556;DHT22;40859;50.560;7.268;2023-04-26T19:33:33;21.50;77.20
36556;DHT22;40859;50.560;7.268;2023-04-26T19:36:00;21.60;77.60
36556;DHT22;40859;50.560;7.268;2023-04-26T19:38:27;21.50;77.50
36556;DHT22;40859;50.560;7.268;2023-04-26T19:40:53;21.50;77.60
36556;DHT22;40859;50.560;7.268;2023-04-26T19:43:19;21.50;77.40
36556;DHT22;40859;50.560;7.268;2023-04-26T19:45:45;21.60;77.50
36556;DHT22;40859;50.560;7.268;2023-04-26T19:48:11;21.50;77.30
36556;DHT22;40859;50.560;7.268;2023-04-26T19:50:42;21.50;77.30
36556;DHT22;40859;50.560;7.268;2023-04-26T19:53:09;21.50;77.20
36556;DHT22;40859;50.560;7.268;2023-04-26T19:55:39;21.50;77.10
36556;DHT22;40859;50.560;7.268;2023-04-26T19:58:06;21.50;76.80
36556;DHT22;40859;50.560;7.268;2023-04-26T20:00:32;21.50;76.50
36556;DHT22;40859;50.560;7.268;2023-04-26T20:03:00;21.50;76.50
36556;DHT22;40859;50.560;7.268;2023-04-26T20:05:29;21.50;76.70
36556;DHT22;40859;50.560;7.268;2023-04-26T20:07:55;21.50;76.60
36556;DHT22;40859;50.560;7.268;2023-04-26T20:10:22;21.50;76.70
36556;DHT22;40859;50.560;7.268;2023-04-26T20:12:48;21.50;76.80
36556;DHT22;40859;50.560;7.268;2023-04-26T20:15:14;21.50;76.90
36556;DHT22;40859;50.560;7.268;2023-04-26T20:17:43;21.50;76.90
36556;DHT22;40859;50.560;7.268;2023-04-26T20:20:10;21.50;76.90
36556;DHT22;40859;50.560;7.268;2023-04-26T20:22:37;21.50;77.00
36556;DHT22;40859;50.560;7.268;2023-04-26T20:25:04;21.50;77.10
36556;DHT22;40859;50.560;7.268;2023-04-26T20:27:31;21.50;77.30
36556;DHT22;40859;50.560;7.268;2023-04-26T20:29:57;21.50;77.30
36556;DHT22;40859;50.560;7.268;2023-04-26T20:32:22;21.50;77.40
36556;DHT22;40859;50.560;7.268;2023-04-26T20:34:48;21.50;77.50
36556;DHT22;40859;50.560;7.268;2023-04-26T20:37:14;21.50;77.50
36556;DHT22;40859;50.560;7.268;2023-04-26T20:39:40;21.50;77.60
36556;DHT22;40859;50.560;7.268;2023-04-26T20:42:06;21.50;77.70
36556;DHT22;40859;50.560;7.268;2023-04-26T20:44:32;21.50;77.70
36556;DHT22;40859;50.560;7.268;2023-04-26T20:46:58;21.50;77.80
36556;DHT22;40859;50.560;7.268;2023-04-26T20:49:27;21.40;77.90
36556;DHT22;40859;50.560;7.268;2023-04-26T20:51:58;21.40;78.00
36556;DHT22;40859;50.560;7.268;2023-04-26T20:54:24;21.50;78.10
36556;DHT22;40859;50.560;7.268;2023-04-26T20:56:50;21.40;78.00
36556;DHT22;40859;50.560;7.268;2023-04-26T20:59:16;21.40;78.00
36556;DHT22;40859;50.560;7.268;2023-04-26T21:01:45;21.40;78.90
36556;DHT22;40859;50.560;7.268;2023-04-26T21:04:11;21.40;78.10
36556;DHT22;40859;50.560;7.268;2023-04-26T21:06:37;21.40;78.10
36556;DHT22;40859;50.560;7.268;2023-04-26T21:09:03;21.40;78.40
36556;DHT22;40859;50.560;7.268;2023-04-26T21:11:29;21.40;78.40
36556;DHT22;40859;50.560;7.268;2023-04-26T21:13:56;21.40;78.30
36556;DHT22;40859;50.560;7.268;2023-04-26T21:16:23;21.40;78.40
36556;DHT22;40859;50.560;7.268;2023-04-26T21:18:49;21.40;78.50
36556;DHT22;40859;50.560;7.268;2023-04-26T21:21:15;21.40;78.50
36556;DHT22;40859;50.560;7.268;2023-04-26T21:23:41;21.40;78.50
36556;DHT22;40859;50.560;7.268;2023-04-26T21:26:07;21.40;78.30
36556;DHT22;40859;50.560;7.268;2023-04-26T21:28:33;21.40;78.50
36556;DHT22;40859;50.560;7.268;2023-04-26T21:31:02;21.40;78.40
36556;DHT22;40859;50.560;7.268;2023-04-26T21:33:29;21.40;77.80
36556;DHT22;40859;50.560;7.268;2023-04-26T21:35:56;21.40;78.80
36556;DHT22;40859;50.560;7.268;2023-04-26T21:38:22;21.40;78.00
36556;DHT22;40859;50.560;7.268;2023-04-26T21:40:48;21.40;78.00
36556;DHT22;40859;50.560;7.268;2023-04-26T21:43:13;21.40;74.50
36556;DHT22;40859;50.560;7.268;2023-04-26T21:45:40;21.30;74.20
36556;DHT22;40859;50.560;7.268;2023-04-26T21:48:06;21.30;75.40
36556;DHT22;40859;50.560;7.268;2023-04-26T21:50:34;21.20;74.30
36556;DHT22;40859;50.560;7.268;2023-04-26T21:53:00;21.10;73.80
36556;DHT22;40859;50.560;7.268;2023-04-26T21:55:29;21.10;74.60
36556;DHT22;40859;50.560;7.268;2023-04-26T21:57:54;21.10;75.80
36556;DHT22;40859;50.560;7.268;2023-04-26T22:00:20;21.10;75.70
36556;DHT22;40859;50.560;7.268;2023-04-26T22:02:46;21.20;75.80
36556;DHT22;40859;50.560;7.268;2023-04-26T22:05:12;21.20;75.70
36556;DHT22;40859;50.560;7.268;2023-04-26T22:07:38;21.20;75.60
36556;DHT22;40859;50.560;7.268;2023-04-26T22:10:04;21.20;75.60
36556;DHT22;40859;50.560;7.268;2023-04-26T22:12:30;21.20;75.60
36556;DHT22;40859;50.560;7.268;2023-04-26T22:14:56;21.20;75.70
36556;DHT22;40859;50.560;7.268;2023-04-26T22:17:22;21.20;75.30
36556;DHT22;40859;50.560;7.268;2023-04-26T22:19:51;21.20;75.30
36556;DHT22;40859;50.560;7.268;2023-04-26T22:22:17;21.20;74.80
36556;DHT22;40859;50.560;7.268;2023-04-26T22:24:43;21.20;75.60
36556;DHT22;40859;50.560;7.268;2023-04-26T22:27:09;21.20;75.70
36556;DHT22;40859;50.560;7.268;2023-04-26T22:29:35;21.20;75.80
36556;DHT22;40859;50.560;7.268;2023-04-26T22:32:03;21.20;76.30
36556;DHT22;40859;50.560;7.268;2023-04-26T22:34:30;21.20;76.90
36556;DHT22;40859;50.560;7.268;2023-04-26T22:36:55;21.20;76.30
36556;DHT22;40859;50.560;7.268;2023-04-26T22:39:21;21.20;76.30
36556;DHT22;40859;50.560;7.268;2023-04-26T22:41:47;21.20;76.10
36556;DHT22;40859;50.560;7.268;2023-04-26T22:44:13;21.20;75.90
36556;DHT22;40859;50.560;7.268;2023-04-26T22:46:39;21.20;76.30
36556;DHT22;40859;50.560;7.268;2023-04-26T22:49:05;21.20;76.30
36556;DHT22;40859;50.560;7.268;2023-04-26T22:51:31;21.20;76.30
36556;DHT22;40859;50.560;7.268;2023-04-26T22:53:57;21.20;76.10
36556;DHT22;40859;50.560;7.268;2023-04-26T22:56:26;21.20;75.80
36556;DHT22;40859;50.560;7.268;2023-04-26T22:58:52;21.20;75.90
36556;DHT22;40859;50.560;7.268;2023-04-26T23:01:18;21.20;76.40
36556;DHT22;40859;50.560;7.268;2023-04-26T23:03:43;21.20;76.50